Mora, Minnesota
Current Conditions -  °F | °C
As of 7:40 PM on Monday 24 Nov 2014 (Local Time) from KJMR Reporting Station
Light Snow Light Snow  
Wind Chill:   Ceiling: 2300
Heat Index: 18°   Visibility: 10mi
Dew Point: 10°   Wind: 18mph
Humidity: 73%   Direction: 330°NNW
Pressure: 29.79"   Gusts: 24mph
Location:  45.88°N, 93.29°W
Report Text: KJMR 250140Z AUTO 33016G21KT 10SM -SN BKN023 M08/M12 A2979 RMK AO2
Loading
Personal Weather Stations






























Interactive Weather Map New forecast layout! Learn more

10-Day Weather Forecast

Advertisements
Track Severe Weather on mobile